Time;durP1;ratioP1;P1;durP2;ratioP2;P2;SDS_P1;SDS_P2;PMS_P1;PMS_P2;Temp;Humidity;BMP_temperature;BMP_pressure;BME280_temperature;BME280_humidity;BME280_pressure;Samples;Min_cycle;Max_cycle;Signal;HPM_P1;HPM_P2
2021/12/08 00:00:30;;;;;;;7.07;3.15;;;;;;;0.93;100.00;99474.56;5043303;28;20063;-73
2021/12/08 00:02:57;;;;;;;6.82;3.80;;;;;;;0.89;100.00;99478.34;5048736;28;20032;-73
2021/12/08 00:05:24;;;;;;;5.40;2.85;;;;;;;0.86;100.00;99485.56;5044291;28;20032;-73
2021/12/08 00:07:50;;;;;;;9.23;3.78;;;;;;;0.62;100.00;99434.63;5043451;28;20926;-74
2021/12/08 00:10:53;;;;;;;4.28;2.67;;;;;;;0.69;100.00;99466.94;5043322;28;20041;-73
2021/12/08 00:13:15;;;;;;;5.80;3.03;;;;;;;0.33;100.00;99435.13;5044696;28;20045;-73
2021/12/08 00:15:45;;;;;;;8.48;3.65;;;;;;;0.42;100.00;99432.78;5046271;28;20052;-73
2021/12/08 00:18:13;;;;;;;6.43;2.65;;;;;;;0.49;100.00;99452.09;5045698;28;20033;-73
2021/12/08 00:20:40;;;;;;;12.02;3.40;;;;;;;0.44;100.00;99426.50;5043501;28;20283;-73
2021/12/08 00:23:07;;;;;;;6.70;2.38;;;;;;;0.37;100.00;99414.94;5049926;28;20031;-73
2021/12/08 00:25:34;;;;;;;6.50;4.05;;;;;;;0.32;100.00;99402.31;5051267;28;20392;-73
2021/12/08 00:28:00;;;;;;;9.13;2.90;;;;;;;0.23;100.00;99386.66;5047483;28;20431;-73
2021/12/08 00:30:27;;;;;;;5.75;3.20;;;;;;;0.30;100.00;99388.63;5041020;28;20163;-74
2021/12/08 00:32:54;;;;;;;6.90;3.90;;;;;;;0.35;100.00;99378.75;5047223;28;20381;-73
2021/12/08 00:35:21;;;;;;;9.65;3.70;;;;;;;0.26;100.00;99353.53;5043360;28;20034;-75
2021/12/08 00:37:46;;;;;;;12.60;4.03;;;;;;;0.46;100.00;99364.06;5045767;28;20385;-73
2021/12/08 00:40:14;;;;;;;8.90;4.20;;;;;;;0.32;100.00;99329.66;5049002;28;20033;-73
2021/12/08 00:42:39;;;;;;;6.78;3.65;;;;;;;0.51;100.00;99361.97;5046636;28;20079;-73
2021/12/08 00:45:08;;;;;;;11.88;4.43;;;;;;;0.54;100.00;99356.50;5041007;28;20045;-73
2021/12/08 00:47:33;;;;;;;9.00;3.10;;;;;;;0.57;100.00;99351.09;5045020;28;20093;-73
2021/12/08 00:49:59;;;;;;;8.07;3.65;;;;;;;0.60;100.00;99353.44;5026863;28;20631;-73
2021/12/08 00:52:28;;;;;;;6.70;3.83;;;;;;;0.51;100.00;99320.41;5047937;28;20039;-73
2021/12/08 00:54:55;;;;;;;8.57;3.85;;;;;;;0.56;100.00;99345.03;5042660;28;20071;-73
2021/12/08 00:57:20;;;;;;;11.27;4.38;;;;;;;0.67;100.00;99351.97;5058295;28;20021;-73
2021/12/08 00:59:46;;;;;;;5.70;2.90;;;;;;;0.64;100.00;99328.06;5056127;28;20026;-73
2021/12/08 01:02:11;;;;;;;11.15;4.03;;;;;;;0.70;100.00;99333.56;5043286;28;20146;-73
2021/12/08 01:04:37;;;;;;;10.57;3.40;;;;;;;0.58;100.00;99311.19;5047016;28;20025;-73
2021/12/08 01:07:04;;;;;;;6.97;3.47;;;;;;;0.71;100.00;99335.22;5044603;28;20067;-73
2021/12/08 01:09:30;;;;;;;6.90;2.95;;;;;;;0.79;100.00;99338.00;5040286;28;20062;-73
2021/12/08 01:11:57;;;;;;;12.13;2.95;;;;;;;0.78;100.00;99341.56;5046297;28;20031;-73
2021/12/08 01:14:24;;;;;;;6.32;3.20;;;;;;;0.87;100.00;99339.16;5039800;28;20091;-73
2021/12/08 01:16:51;;;;;;;9.57;3.40;;;;;;;0.90;100.00;99333.72;5050252;28;20053;-73
2021/12/08 01:19:17;;;;;;;4.40;3.10;;;;;;;0.89;100.00;99319.91;5041924;28;20089;-73
2021/12/08 01:21:42;;;;;;;6.45;2.92;;;;;;;0.94;100.00;99320.38;5044836;28;20478;-73
2021/12/08 01:24:08;;;;;;;8.60;3.83;;;;;;;0.85;100.00;99299.50;5052820;28;20082;-73
2021/12/08 01:26:33;;;;;;;6.20;3.17;;;;;;;0.86;100.00;99311.56;5044591;28;20097;-73
2021/12/08 01:28:59;;;;;;;6.50;3.17;;;;;;;0.91;100.00;99322.38;5044213;28;20419;-73
2021/12/08 01:31:24;;;;;;;11.70;2.90;;;;;;;0.86;100.00;99308.94;5061668;28;20033;-73
2021/12/08 01:33:50;;;;;;;10.15;3.53;;;;;;;0.93;100.00;99328.28;5036330;28;20045;-73
2021/12/08 01:36:16;;;;;;;9.68;3.70;;;;;;;0.93;100.00;99336.88;5046223;28;20043;-73
2021/12/08 01:38:41;;;;;;;7.63;2.80;;;;;;;0.95;100.00;99332.38;5037102;28;20116;-73
2021/12/08 01:41:07;;;;;;;7.43;3.45;;;;;;;0.86;100.00;99311.56;5047149;28;20017;-72
2021/12/08 01:43:42;;;;;;;5.63;2.78;;;;;;;0.96;100.00;99315.88;5043056;28;20037;-72
2021/12/08 01:46:11;;;;;;;4.45;3.30;;;;;;;0.98;100.00;99323.50;5046512;28;20133;-73
2021/12/08 01:48:41;;;;;;;10.30;3.95;;;;;;;0.88;100.00;99296.66;5034089;28;20140;-73
2021/12/08 01:51:17;;;;;;;4.88;2.78;;;;;;;0.95;100.00;99306.41;5043537;28;20592;-73
2021/12/08 01:53:47;;;;;;;9.45;2.83;;;;;;;0.94;100.00;99289.19;5036215;28;20091;-73
2021/12/08 01:56:14;;;;;;;7.40;3.58;;;;;;;1.02;100.00;99297.19;5044475;28;20040;-73
2021/12/08 01:58:40;;;;;;;7.55;2.55;;;;;;;1.05;100.00;99303.06;5041812;28;20020;-73
2021/12/08 02:01:09;;;;;;;10.77;4.18;;;;;;;0.90;100.00;99276.59;5050115;28;20047;-71
2021/12/08 02:03:36;;;;;;;7.80;3.20;;;;;;;1.07;100.00;99296.78;5034173;28;20025;-71
2021/12/08 02:06:03;;;;;;;6.30;2.97;;;;;;;0.94;100.00;99280.56;5048682;28;20473;-71
2021/12/08 02:08:29;;;;;;;10.63;3.38;;;;;;;1.04;100.00;99289.25;5040783;28;20033;-71
2021/12/08 02:10:56;;;;;;;8.88;3.33;;;;;;;1.00;100.00;99296.47;5044615;28;20068;-71
2021/12/08 02:13:22;;;;;;;6.65;3.33;;;;;;;1.15;100.00;99296.97;5041058;28;20033;-71
2021/12/08 02:15:48;;;;;;;8.68;3.35;;;;;;;1.17;100.00;99295.06;5043532;28;20500;-71
2021/12/08 02:18:16;;;;;;;5.18;2.83;;;;;;;1.22;100.00;99318.91;5043953;28;20032;-71
2021/12/08 02:20:45;;;;;;;7.03;3.47;;;;;;;1.26;100.00;99290.06;5042789;28;20116;-72
2021/12/08 02:23:12;;;;;;;7.60;3.72;;;;;;;1.13;100.00;99257.31;5041777;28;20523;-71
2021/12/08 02:25:37;;;;;;;7.65;3.70;;;;;;;1.34;100.00;99285.03;5035524;28;20028;-71
2021/12/08 02:28:04;;;;;;;7.55;2.92;;;;;;;1.39;100.00;99298.47;5042223;28;20037;-71
2021/12/08 02:30:40;;;;;;;6.95;3.40;;;;;;;1.42;100.00;99282.63;5043881;28;20037;-71
2021/12/08 02:46:53;;;;;;;4.30;2.10;;;;;;;1.53;100.00;99253.94;5039258;28;20132;-71
2021/12/08 02:49:22;;;;;;;10.95;3.67;;;;;;;1.58;100.00;99262.16;5043052;28;20048;-72
2021/12/08 02:51:49;;;;;;;11.80;4.43;;;;;;;1.64;100.00;99268.63;5039285;28;20029;-72
2021/12/08 02:54:15;;;;;;;6.03;3.85;;;;;;;1.69;100.00;99255.22;5051856;28;20516;-72
2021/12/08 02:56:40;;;;;;;9.05;3.80;;;;;;;1.69;100.00;99237.00;5041350;28;20052;-71
2021/12/08 02:59:06;;;;;;;5.30;3.38;;;;;;;1.69;100.00;99257.81;5030748;28;20025;-71
2021/12/08 03:01:33;;;;;;;5.65;4.07;;;;;;;1.71;100.00;99248.09;5027705;28;20492;-71
2021/12/08 03:03:59;;;;;;;8.13;3.08;;;;;;;1.73;100.00;99238.38;5041175;28;20104;-71
2021/12/08 03:06:24;;;;;;;10.35;5.65;;;;;;;1.74;100.00;99250.44;5024536;28;20135;-71
2021/12/08 03:08:50;;;;;;;6.30;3.47;;;;;;;1.74;100.00;99246.06;5043149;28;20098;-72
2021/12/08 03:11:16;;;;;;;6.07;3.15;;;;;;;1.76;100.00;99245.91;5040302;28;20037;-71
2021/12/08 03:14:10;;;;;;;8.00;3.58;;;;;;;1.63;100.00;99223.59;5046231;28;20028;-72
2021/12/08 03:16:40;;;;;;;7.82;4.00;;;;;;;1.77;100.00;99244.97;5049973;28;20473;-71
2021/12/08 03:19:06;;;;;;;9.23;5.15;;;;;;;1.72;100.00;99253.19;5043765;28;20032;-71
2021/12/08 03:21:32;;;;;;;9.13;4.05;;;;;;;1.80;100.00;99240.31;5063891;28;20028;-71
2021/12/08 03:24:19;;;;;;;6.07;4.05;;;;;;;1.81;100.00;99233.34;5048119;28;20046;-71
2021/12/08 03:27:04;;;;;;;6.93;3.95;;;;;;;1.84;100.00;99251.28;5049352;28;20104;-71
2021/12/08 03:32:13;;;;;;;7.82;4.85;;;;;;;1.88;100.00;99257.88;5049506;28;20029;-71
2021/12/08 03:34:43;;;;;;;7.97;4.97;;;;;;;1.91;100.00;99257.59;5040911;28;20043;-71
2021/12/08 03:37:10;;;;;;;5.55;4.13;;;;;;;1.90;100.00;99255.97;5041870;28;20021;-71
2021/12/08 03:39:40;;;;;;;7.38;3.65;;;;;;;1.92;100.00;99264.47;5050742;28;20078;-71
2021/12/08 03:42:06;;;;;;;9.82;5.13;;;;;;;1.78;100.00;99231.81;5047598;28;20024;-72
2021/12/08 03:44:31;;;;;;;6.47;4.60;;;;;;;1.93;100.00;99271.28;5041026;28;20110;-71
2021/12/08 03:47:01;;;;;;;9.70;4.97;;;;;;;1.83;100.00;99247.06;5031334;28;20612;-71
2021/12/08 03:49:29;;;;;;;10.25;5.63;;;;;;;1.89;100.00;99290.72;5044779;28;20063;-71
2021/12/08 03:52:00;;;;;;;15.45;5.50;;;;;;;1.71;100.00;99248.09;5042852;28;20112;-71
2021/12/08 03:54:26;;;;;;;11.27;5.97;;;;;;;1.87;100.00;99261.41;5047062;28;20037;-71
2021/12/08 03:56:52;;;;;;;7.75;5.68;;;;;;;1.86;100.00;99264.97;5043733;28;20172;-71
2021/12/08 03:59:17;;;;;;;8.82;6.45;;;;;;;1.88;100.00;99268.28;5047524;28;20065;-71
2021/12/08 04:01:43;;;;;;;7.53;4.38;;;;;;;1.87;100.00;99258.00;5046986;28;20029;-71
2021/12/08 04:04:10;;;;;;;11.20;5.50;;;;;;;1.85;100.00;99273.72;5040673;28;20040;-71
2021/12/08 04:06:49;;;;;;;9.23;4.80;;;;;;;1.90;100.00;99265.56;5030110;28;20037;-70
2021/12/08 04:09:34;;;;;;;9.80;5.22;;;;;;;2.00;100.00;99276.78;5043502;28;20111;-70
2021/12/08 04:12:01;;;;;;;9.88;6.05;;;;;;;2.03;100.00;99287.75;5048256;28;20094;-71
2021/12/08 04:14:31;;;;;;;7.32;5.20;;;;;;;2.06;100.00;99284.06;5052710;28;20423;-71
2021/12/08 04:17:19;;;;;;;12.30;5.70;;;;;;;2.08;100.00;99289.13;5042092;28;20025;-71
2021/12/08 04:19:45;;;;;;;9.95;5.75;;;;;;;2.12;100.00;99286.13;5043988;28;20480;-71
2021/12/08 04:22:33;;;;;;;10.32;6.00;;;;;;;2.10;100.00;99284.63;5051854;28;20025;-72
2021/12/08 04:25:01;;;;;;;12.35;6.82;;;;;;;2.18;100.00;99290.00;5040981;28;20444;-71
2021/12/08 04:27:30;;;;;;;10.60;6.82;;;;;;;2.22;100.00;99300.00;5043807;28;20026;-71
2021/12/08 04:29:57;;;;;;;10.25;6.47;;;;;;;2.25;100.00;99291.91;5041626;28;20032;-70
2021/12/08 04:32:26;;;;;;;13.35;7.20;;;;;;;2.31;100.00;99300.13;5043830;28;20132;-70
2021/12/08 04:34:56;;;;;;;16.27;8.40;;;;;;;2.20;100.00;99283.69;5043029;28;20426;-71
2021/12/08 04:37:29;;;;;;;13.47;7.73;;;;;;;2.32;100.00;99313.00;5036624;28;20025;-71
2021/12/08 04:40:25;;;;;;;14.95;8.68;;;;;;;2.31;100.00;99295.75;5047478;28;20135;-70
2021/12/08 04:43:06;;;;;;;10.52;7.30;;;;;;;2.34;100.00;99289.47;5042060;28;20389;-71
2021/12/08 04:45:48;;;;;;;10.43;7.28;;;;;;;2.40;100.00;99296.72;5043081;28;20041;-70
2021/12/08 04:48:53;;;;;;;11.48;6.65;;;;;;;2.43;100.00;99294.66;5036114;28;20409;-70
2021/12/08 05:04:49;;;;;;;13.60;8.80;;;;;;;2.68;100.00;99300.31;5042649;28;20047;-71
2021/12/08 05:10:25;;;;;;;8.20;6.53;;;;;;;2.64;100.00;99280.69;4996645;28;20030;-71
2021/12/08 05:12:52;;;;;;;11.70;9.23;;;;;;;2.73;100.00;99295.50;5000098;28;20042;-70
2021/12/08 05:15:37;;;;;;;14.75;8.73;;;;;;;2.76;100.00;99297.81;4999833;28;20092;-71
2021/12/08 05:18:07;;;;;;;14.23;7.72;;;;;;;2.77;100.00;99296.06;5003778;28;20034;-71
2021/12/08 05:20:37;;;;;;;13.40;7.68;;;;;;;2.67;100.00;99272.59;4994948;28;20485;-71
2021/12/08 05:23:17;;;;;;;24.50;9.60;;;;;;;2.76;100.00;99294.41;5000380;28;20029;-71
2021/12/08 05:25:45;;;;;;;13.50;10.00;;;;;;;2.83;100.00;99309.34;5001427;28;20195;-71
2021/12/08 05:28:18;;;;;;;14.57;8.68;;;;;;;2.81;100.00;99307.81;4999150;28;20399;-71
2021/12/08 05:30:50;;;;;;;13.32;8.48;;;;;;;2.82;100.00;99304.28;4999422;28;21274;-71
2021/12/08 05:33:16;;;;;;;13.13;8.88;;;;;;;2.90;100.00;99317.44;5003840;28;20033;-71
2021/12/08 05:35:42;;;;;;;14.25;8.98;;;;;;;2.93;100.00;99321.53;4987267;28;20048;-71
2021/12/08 05:38:09;;;;;;;15.30;9.20;;;;;;;2.91;100.00;99310.44;5001736;28;20034;-71
2021/12/08 05:40:39;;;;;;;14.68;9.30;;;;;;;2.99;100.00;99331.44;4981881;28;20082;-72
2021/12/08 05:43:06;;;;;;;17.65;9.25;;;;;;;3.00;100.00;99327.84;5000432;28;20035;-72
2021/12/08 05:45:31;;;;;;;14.15;9.82;;;;;;;3.02;100.00;99325.91;5017596;28;20498;-72
2021/12/08 05:47:57;;;;;;;16.63;9.40;;;;;;;3.06;100.00;99330.72;5060194;28;20053;-72
2021/12/08 05:50:41;;;;;;;15.32;9.27;;;;;;;3.00;100.00;99325.25;5047259;28;20049;-72
2021/12/08 05:53:07;;;;;;;15.55;8.80;;;;;;;3.08;100.00;99339.22;5041033;28;20512;-72
2021/12/08 05:55:34;;;;;;;11.27;8.15;;;;;;;2.97;100.00;99305.50;5037727;28;20045;-72
2021/12/08 05:58:00;;;;;;;14.63;10.13;;;;;;;3.21;100.00;99340.72;5037864;28;20471;-72
2021/12/08 06:00:31;;;;;;;12.43;7.55;;;;;;;3.12;100.00;99316.31;5042695;28;20021;-72
2021/12/08 06:02:57;;;;;;;13.55;9.73;;;;;;;3.27;100.00;99350.59;5038816;28;20440;-72
2021/12/08 06:05:24;;;;;;;10.93;8.82;;;;;;;3.28;100.00;99358.25;5051724;28;20028;-72
2021/12/08 06:07:49;;;;;;;15.23;8.13;;;;;;;3.30;100.00;99351.13;5041013;28;20103;-72
2021/12/08 06:10:23;;;;;;;13.98;10.00;;;;;;;3.28;100.00;99353.06;5044892;28;20041;-72
2021/12/08 06:12:49;;;;;;;10.48;8.32;;;;;;;3.23;100.00;99339.63;5038698;28;20060;-72
2021/12/08 06:15:15;;;;;;;19.00;10.48;;;;;;;3.33;100.00;99359.63;5039784;28;20058;-72
2021/12/08 06:17:41;;;;;;;13.45;10.05;;;;;;;3.36;100.00;99344.53;5031527;28;20110;-72
2021/12/08 06:20:11;;;;;;;12.50;9.15;;;;;;;3.39;100.00;99369.50;5042237;28;20452;-71
2021/12/08 06:22:38;;;;;;;12.35;8.98;;;;;;;3.39;100.00;99359.91;5038132;28;20029;-71
2021/12/08 06:25:05;;;;;;;15.45;10.05;;;;;;;3.26;100.00;99347.16;5044312;28;20041;-71
2021/12/08 06:27:30;;;;;;;11.27;8.05;;;;;;;3.38;100.00;99363.47;5024053;28;20037;-71
2021/12/08 06:29:56;;;;;;;13.60;9.18;;;;;;;3.42;100.00;99369.22;5035168;28;20580;-71
2021/12/08 06:32:21;;;;;;;12.20;9.05;;;;;;;3.42;100.00;99364.00;5042701;28;20508;-71
2021/12/08 06:34:52;;;;;;;9.48;5.95;;;;;;;3.45;100.00;99374.16;5037956;28;20086;-71
2021/12/08 06:37:23;;;;;;;13.02;6.93;;;;;;;3.41;100.00;99367.59;5035714;28;20485;-72
2021/12/08 06:40:01;;;;;;;9.95;7.30;;;;;;;3.34;100.00;99354.28;5045344;28;20384;-72
2021/12/08 06:42:31;;;;;;;13.65;7.68;;;;;;;3.34;100.00;99362.09;5041448;28;20021;-72
2021/12/08 06:44:57;;;;;;;11.18;8.65;;;;;;;3.47;100.00;99382.69;5036286;28;20159;-72
2021/12/08 06:47:27;;;;;;;11.35;7.88;;;;;;;3.45;100.00;99382.00;5039983;28;20044;-71
2021/12/08 06:49:56;;;;;;;14.18;7.88;;;;;;;3.47;100.00;99382.69;5032168;28;20412;-71
2021/12/08 06:52:26;;;;;;;11.85;8.02;;;;;;;3.47;100.00;99391.31;5034244;28;20052;-72
2021/12/08 06:55:26;;;;;;;10.10;7.50;;;;;;;3.45;100.00;99379.38;5036406;28;20542;-72
2021/12/08 06:57:56;;;;;;;16.05;8.02;;;;;;;3.34;100.00;99369.13;5025939;28;20120;-72
2021/12/08 07:01:12;;;;;;;15.27;7.53;;;;;;;3.49;100.00;99404.22;5035034;28;20029;-72
2021/12/08 07:08:58;;;;;;;10.90;7.18;;;;;;;3.53;100.00;99396.94;5042083;28;20041;-72
2021/12/08 07:11:26;;;;;;;8.50;6.25;;;;;;;3.53;100.00;99402.16;5041237;28;20024;-72
2021/12/08 07:13:54;;;;;;;15.00;7.65;;;;;;;3.48;100.00;99395.59;5034159;28;20025;-72
2021/12/08 07:16:28;;;;;;;13.30;8.25;;;;;;;3.51;100.00;99415.34;5039884;28;20508;-72
2021/12/08 07:19:01;;;;;;;12.23;7.45;;;;;;;3.40;100.00;99407.69;5034399;28;20077;-72
2021/12/08 07:21:32;;;;;;;17.55;7.88;;;;;;;3.40;100.00;99407.69;5043253;28;20033;-72
2021/12/08 07:24:06;;;;;;;11.07;6.78;;;;;;;3.51;100.00;99420.56;5048969;28;20370;-71
2021/12/08 07:26:36;;;;;;;10.80;7.07;;;;;;;3.39;100.00;99395.59;5039494;28;20021;-71
2021/12/08 07:29:03;;;;;;;10.30;6.97;;;;;;;3.53;100.00;99431.69;5043901;28;20025;-71
2021/12/08 07:31:34;;;;;;;14.90;6.57;;;;;;;3.53;100.00;99430.84;5059269;28;20021;-71
2021/12/08 07:34:04;;;;;;;;;;;;;;;3.53;100.00;99434.28;5039177;28;20033;-70
2021/12/08 07:36:32;;;;;;;8.57;6.00;;;;;;;3.55;100.00;99453.25;5038988;28;19947;-71
2021/12/08 07:38:59;;;;;;;11.30;6.47;;;;;;;3.55;100.00;99453.25;5039837;28;20386;-72
2021/12/08 07:41:33;;;;;;;10.55;6.38;;;;;;;3.49;100.00;99449.41;5041261;28;20386;-71
2021/12/08 07:44:04;;;;;;;11.48;5.35;;;;;;;3.45;100.00;99452.41;5041224;28;20038;-71
2021/12/08 07:46:46;;;;;;;9.32;5.82;;;;;;;3.40;100.00;99454.63;5054028;28;20033;-71
2021/12/08 07:49:24;;;;;;;8.10;5.43;;;;;;;3.30;100.00;99447.59;5039371;28;20065;-71
2021/12/08 07:51:57;;;;;;;10.43;6.25;;;;;;;3.37;100.00;99458.31;5046337;28;20087;-71
2021/12/08 07:54:23;;;;;;;8.45;6.45;;;;;;;3.37;100.00;99463.53;5043358;28;20028;-71
2021/12/08 07:56:55;;;;;;;9.73;5.28;;;;;;;3.39;100.00;99458.19;5035719;28;20083;-71
2021/12/08 07:59:22;;;;;;;6.15;4.28;;;;;;;3.35;100.00;99451.59;5034303;28;20075;-71
2021/12/08 08:01:51;;;;;;;8.82;4.80;;;;;;;3.35;100.00;99456.81;5045852;28;20029;-71
2021/12/08 08:04:20;;;;;;;9.85;5.47;;;;;;;3.33;100.00;99462.16;5042800;28;20020;-71
2021/12/08 08:06:51;;;;;;;13.13;5.43;;;;;;;3.27;100.00;99463.53;5034721;28;20500;-71
2021/12/08 08:09:21;;;;;;;;;;;;;;;3.24;100.00;99471.63;5055354;28;20060;-72
2021/12/08 08:11:55;;;;;;;10.05;4.47;;;;;;;3.11;100.00;99465.84;5041147;28;19923;-72
2021/12/08 08:14:27;;;;;;;9.48;5.10;;;;;;;3.15;100.00;99472.44;5041383;28;20052;-72
2021/12/08 08:16:56;;;;;;;;;;;;;;;3.15;100.00;99477.66;5038680;28;20509;-72
2021/12/08 08:19:27;;;;;;;7.35;4.30;;;;;;;3.14;100.00;99480.41;5037208;28;19916;-71
2021/12/08 08:21:55;;;;;;;9.60;5.10;;;;;;;3.11;100.00;99480.69;5037332;28;20410;-71
2021/12/08 08:24:21;;;;;;;7.13;4.30;;;;;;;3.12;100.00;99492.75;5056050;28;20367;-71
2021/12/08 08:26:49;;;;;;;4.85;3.22;;;;;;;3.09;100.00;99483.41;5039526;28;20102;-71
2021/12/08 08:29:16;;;;;;;8.07;4.68;;;;;;;3.13;100.00;99492.59;5035252;28;20499;-71
2021/12/08 08:31:53;;;;;;;7.78;3.67;;;;;;;3.15;100.00;99493.31;5037619;28;20116;-71
2021/12/08 08:34:19;;;;;;;5.05;2.95;;;;;;;3.20;100.00;99491.13;5037525;28;20043;-71
2021/12/08 08:36:46;;;;;;;9.15;3.67;;;;;;;3.09;100.00;99473.81;5053278;28;20021;-72
2021/12/08 08:39:19;;;;;;;7.15;4.05;;;;;;;3.30;100.00;99497.16;5037766;28;20043;-71
2021/12/08 08:41:59;;;;;;;6.93;3.67;;;;;;;3.42;100.00;99490.03;5044698;28;20025;-71
2021/12/08 08:44:31;;;;;;;17.75;4.10;;;;;;;3.43;100.00;99496.06;5040699;28;20528;-71
2021/12/08 08:47:00;;;;;;;5.75;3.47;;;;;;;3.43;100.00;99493.47;5040932;28;20124;-72
2021/12/08 08:49:30;;;;;;;6.45;3.20;;;;;;;3.44;100.00;99487.28;5043763;28;20050;-71
2021/12/08 08:52:04;;;;;;;6.28;3.80;;;;;;;3.30;100.00;99481.50;5044210;28;20040;-71
2021/12/08 08:54:33;;;;;;;9.43;4.18;;;;;;;3.36;100.00;99481.94;5041710;28;20029;-71
2021/12/08 08:57:15;;;;;;;6.65;3.47;;;;;;;3.47;100.00;99497.44;5043066;28;20033;-71
2021/12/08 08:59:45;;;;;;;;;;;;;;;3.48;100.00;99497.31;5038320;28;20500;-71
2021/12/08 09:02:17;;;;;;;6.35;3.13;;;;;;;3.43;100.00;99478.63;5043785;28;20392;-71
2021/12/08 09:04:50;;;;;;;6.28;2.78;;;;;;;3.71;100.00;99500.44;5039526;28;20021;-71
2021/12/08 09:07:22;;;;;;;5.65;2.97;;;;;;;3.96;100.00;99498.19;5039349;28;20040;-71
2021/12/08 09:09:49;;;;;;;6.60;2.47;;;;;;;4.37;100.00;99513.63;5040514;28;20029;-71
2021/12/08 09:12:20;;;;;;;4.47;3.00;;;;;;;4.44;100.00;99512.94;5047527;28;20033;-71
2021/12/08 09:14:54;;;;;;;6.30;2.42;;;;;;;4.97;100.00;99529.75;5038161;28;20118;-71
2021/12/08 09:17:25;;;;;;;8.93;2.42;;;;;;;5.25;100.00;99514.03;5043751;28;20029;-71
2021/12/08 09:20:02;;;;;;;9.73;2.40;;;;;;;5.30;98.84;99514.41;5042964;28;20021;-71
2021/12/08 09:22:42;;;;;;;4.85;1.65;;;;;;;5.34;98.13;99536.69;5043207;28;20085;-71
2021/12/08 09:25:18;;;;;;;3.90;1.60;;;;;;;5.24;98.23;99515.00;5039519;28;20033;-72
2021/12/08 09:27:49;;;;;;;3.25;1.30;;;;;;;5.60;96.72;99523.69;5037771;28;20052;-71
2021/12/08 09:30:24;;;;;;;4.55;1.88;;;;;;;5.47;95.96;99523.22;5040865;28;20502;-71
2021/12/08 09:32:57;;;;;;;3.95;1.80;;;;;;;5.10;96.62;99540.69;5047568;28;20117;-71
2021/12/08 09:35:42;;;;;;;4.95;2.03;;;;;;;4.81;98.24;99540.81;5041778;28;20037;-72
2021/12/08 09:38:16;;;;;;;8.40;2.05;;;;;;;4.59;99.24;99517.69;5035645;28;20022;-72
2021/12/08 09:40:48;;;;;;;6.40;1.83;;;;;;;4.63;100.00;99558.25;5038828;28;20024;-72
2021/12/08 09:43:34;;;;;;;4.25;1.90;;;;;;;4.50;100.00;99546.31;5047188;28;20033;-72
2021/12/08 09:46:18;;;;;;;10.20;1.98;;;;;;;4.44;100.00;99548.66;5033137;28;20040;-72
2021/12/08 09:48:46;;;;;;;10.05;3.33;;;;;;;4.41;100.00;99554.19;5039980;28;20045;-72
2021/12/08 09:51:15;;;;;;;9.80;3.38;;;;;;;4.40;100.00;99558.59;5033666;28;20030;-72
2021/12/08 09:53:43;;;;;;;16.13;7.82;;;;;;;4.39;100.00;99572.59;5035023;28;20036;-72
2021/12/08 09:56:09;;;;;;;12.25;6.30;;;;;;;4.42;99.60;99569.72;5036549;28;20033;-71
2021/12/08 09:58:37;;;;;;;12.13;4.55;;;;;;;4.44;99.93;99578.25;5046479;28;20032;-71
2021/12/08 10:01:04;;;;;;;9.40;2.47;;;;;;;4.34;99.73;99548.72;5038591;28;20040;-72
2021/12/08 10:03:30;;;;;;;8.10;3.88;;;;;;;4.64;98.83;99552.03;5036267;28;20044;-72
2021/12/08 10:05:55;;;;;;;7.38;2.50;;;;;;;5.10;97.59;99542.47;5037786;28;20029;-72
2021/12/08 10:08:21;;;;;;;5.45;2.65;;;;;;;6.26;93.45;99573.97;5036015;28;20385;-72
2021/12/08 10:10:47;;;;;;;4.50;1.25;;;;;;;6.64;90.05;99592.88;5040115;28;20033;-72
2021/12/08 10:13:15;;;;;;;3.60;1.40;;;;;;;6.39;89.14;99582.25;5042270;28;20457;-71
2021/12/08 10:15:41;;;;;;;6.10;1.70;;;;;;;6.17;90.24;99604.53;5034496;28;20032;-71
2021/12/08 10:18:08;;;;;;;4.47;1.25;;;;;;;6.59;89.75;99588.91;5033660;28;20040;-71
2021/12/08 10:20:47;;;;;;;6.15;1.40;;;;;;;6.95;86.42;99585.34;5038380;28;20105;-71
2021/12/08 10:23:18;;;;;;;11.68;1.88;;;;;;;6.77;85.81;99590.66;5034990;28;20029;-71
2021/12/08 10:25:49;;;;;;;6.18;1.58;;;;;;;6.12;88.19;99597.13;5039801;28;20029;-71
2021/12/08 10:28:27;;;;;;;4.88;1.38;;;;;;;6.11;89.33;99587.59;5052713;28;20036;-71
2021/12/08 10:30:54;;;;;;;6.80;1.38;;;;;;;6.38;88.61;99568.31;5040754;28;20082;-71
2021/12/08 10:39:22;;;;;;;4.47;1.58;;;;;;;7.39;82.29;99569.41;5039504;28;20048;-72
2021/12/08 10:42:03;;;;;;;7.32;2.13;;;;;;;6.96;84.51;99581.72;5039653;28;20091;-72
2021/12/08 10:47:35;;;;;;;8.35;1.92;;;;;;;7.25;83.00;99565.63;5041300;28;20095;-72
2021/12/08 10:55:23;;;;;;;8.40;1.83;;;;;;;7.15;82.85;99559.66;5035623;28;20366;-71
2021/12/08 10:57:53;;;;;;;6.63;1.83;;;;;;;7.26;82.86;99550.69;5041510;28;20024;-71
2021/12/08 11:00:32;;;;;;;8.30;2.13;;;;;;;7.24;81.78;99540.34;5037680;28;20047;-71
2021/12/08 11:03:05;;;;;;;8.68;3.17;;;;;;;7.26;81.97;99548.88;5040096;28;20060;-71
2021/12/08 11:05:38;;;;;;;7.20;1.70;;;;;;;6.77;83.04;99548.69;5039253;28;20033;-71
2021/12/08 11:08:08;;;;;;;4.28;1.45;;;;;;;6.91;84.73;99552.53;5036150;28;20457;-71
2021/12/08 11:10:54;;;;;;;3.83;1.42;;;;;;;6.89;85.19;99560.56;5039096;28;20037;-72
2021/12/08 11:13:26;;;;;;;7.13;1.85;;;;;;;6.29;85.56;99566.63;5037436;28;20471;-72
2021/12/08 11:16:23;;;;;;;11.90;2.67;;;;;;;6.04;88.39;99565.63;5036928;28;20420;-72
2021/12/08 11:18:51;;;;;;;7.78;2.00;;;;;;;5.84;88.73;99572.81;5036876;28;20140;-72
2021/12/08 11:21:35;;;;;;;3.80;1.33;;;;;;;5.77;89.18;99564.72;5041894;28;20112;-72
2021/12/08 11:24:03;;;;;;;6.55;2.22;;;;;;;5.71;90.05;99569.75;5033722;28;20037;-72
2021/12/08 11:26:37;;;;;;;9.48;1.92;;;;;;;5.73;90.48;99576.47;5037973;28;20551;-72
2021/12/08 11:29:09;;;;;;;4.00;1.30;;;;;;;5.73;90.70;99563.38;5044970;28;20039;-72
2021/12/08 11:31:38;;;;;;;4.35;1.40;;;;;;;5.70;90.55;99570.69;5037835;28;20021;-72
2021/12/08 11:34:10;;;;;;;8.70;1.98;;;;;;;5.69;91.27;99582.16;5039150;28;20029;-72
2021/12/08 11:36:38;;;;;;;8.77;1.98;;;;;;;5.59;91.18;99571.75;5050473;28;20091;-72
2021/12/08 11:39:31;;;;;;;8.02;2.10;;;;;;;5.52;91.79;99558.44;5039942;28;20029;-72
2021/12/08 11:42:12;;;;;;;9.15;2.33;;;;;;;5.49;92.29;99582.28;5040541;28;20075;-72
2021/12/08 11:44:40;;;;;;;7.95;1.58;;;;;;;5.42;91.84;99594.34;5044093;28;20154;-72
2021/12/08 11:47:11;;;;;;;4.18;1.70;;;;;;;5.39;91.82;99596.41;5040643;28;20647;-72
2021/12/08 11:49:50;;;;;;;6.82;2.92;;;;;;;5.28;92.46;99598.25;5038391;28;20045;-72
2021/12/08 11:52:20;;;;;;;4.22;1.75;;;;;;;5.19;92.96;99572.97;5042509;28;20033;-72
2021/12/08 11:55:00;;;;;;;8.20;1.92;;;;;;;5.38;93.80;99600.84;5039130;28;20814;-72
2021/12/08 11:57:37;;;;;;;7.82;1.70;;;;;;;5.29;93.20;99601.69;5053379;28;20051;-72
2021/12/08 12:00:22;;;;;;;5.53;1.40;;;;;;;5.28;92.90;99608.72;5034887;28;20032;-72
2021/12/08 12:02:59;;;;;;;2.40;1.58;;;;;;;5.23;93.33;99600.50;5042954;28;20542;-72
2021/12/08 12:05:32;;;;;;;5.07;2.22;;;;;;;5.06;93.65;99583.78;5039011;28;20024;-72
2021/12/08 12:07:59;;;;;;;7.18;1.45;;;;;;;5.01;93.87;99590.41;5035126;28;20041;-72
2021/12/08 12:10:28;;;;;;;7.55;1.70;;;;;;;5.10;93.93;99620.94;5038984;28;20035;-72
2021/12/08 12:12:53;;;;;;;4.25;1.65;;;;;;;5.04;94.00;99611.88;5035996;28;20033;-72
2021/12/08 12:15:23;;;;;;;5.60;2.40;;;;;;;4.98;94.33;99601.16;5033964;28;20104;-72
2021/12/08 12:17:49;;;;;;;6.03;1.92;;;;;;;5.04;94.90;99618.91;5037843;28;20041;-72
2021/12/08 12:20:23;;;;;;;9.02;2.00;;;;;;;5.00;94.60;99633.22;5037927;28;20036;-72
2021/12/08 12:23:25;;;;;;;10.98;3.05;;;;;;;4.92;94.49;99631.31;5036789;28;20105;-72
2021/12/08 12:26:25;;;;;;;5.18;1.98;;;;;;;4.84;95.06;99642.50;5046755;28;20029;-72
2021/12/08 12:29:21;;;;;;;6.65;1.73;;;;;;;4.83;95.30;99653.91;5041637;28;20160;-72
2021/12/08 12:32:25;;;;;;;12.45;3.13;;;;;;;4.81;95.02;99655.84;5040367;28;20725;-72
2021/12/08 12:34:53;;;;;;;7.07;2.53;;;;;;;4.69;94.93;99638.69;5042060;28;20033;-72
2021/12/08 12:37:31;;;;;;;8.40;3.10;;;;;;;4.75;94.64;99661.66;5039810;28;20034;-72
2021/12/08 12:39:57;;;;;;;9.20;3.05;;;;;;;4.83;95.26;99677.44;5047469;28;20032;-72
2021/12/08 12:42:25;;;;;;;14.32;4.30;;;;;;;4.83;95.59;99682.66;5039830;28;20095;-72
2021/12/08 12:44:57;;;;;;;8.10;3.58;;;;;;;4.81;93.68;99675.94;5044501;28;20031;-72